EPWR

Copernicus Wrocław Airport

Wrocław, Poland
TAF EPWR 151730Z 1518/1618 27010KT 9999 SCT030 BECMG 1518/1520 VRB02KT PROB40 1520/1608 4000 BR BKN005 PROB30 1522/1605 2000 -SNRA BR BECMG 1607/1609 27010KT BKN014
Issued Valid From Valid To
Dec-15 @ 17:30 UTC
(20 minutes ago)
Dec-15 @ 18:00 UTC
(in 10 minutes)
Dec-16 @ 18:00 UTC
(in 24 hours)
Dec-15 @ 18:00 -Dec-16 @ 18:00
Wind Visibility Clouds
270° at 10 knots 10,000+ meters
  • Scattered at 3,000' AGL
Becoming Dec-15 @ 18:00 -Dec-16 @ 07:00
Wind Visibility Clouds
Variable at 2 knots 10,000+ meters
  • Scattered at 3,000' AGL
Probability 40% Probable Dec-15 @ 20:00 -Dec-16 @ 08:00
Visibility Clouds Conditions
4,007 meters
  • Broken at 500' AGL
  • Mist
Probability 30% Probable Dec-15 @ 22:00 -Dec-16 @ 05:00
Visibility Conditions
1,996 meters
  • Light Snow
  • Light Rain
  • Mist
Becoming Dec-16 @ 07:00 -Dec-16 @ 18:00
Wind Visibility Clouds
270° at 10 knots 10,000+ meters
  • Broken at 1,400' AGL
TAF EPWR 151730Z 1518/1618 27010KT 9999 SCT030 BECMG 1518/1520 VRB02KT PROB40 1520/1608 4000 BR BKN005 PROB30 1522/1605 2000 -SNRA BR BECMG 1607/1609 27010KT BKN014
Issued Dec-15 @ 17:30 UTC
(20 minutes ago)
Valid From Dec-15 @ 18:00 UTC
(in 10 minutes)
Valid To Dec-16 @ 18:00 UTC
(in 24 hours)
Dec-15 @ 18:00 - Dec-16 @ 18:00
Wind Visibility
270° at 10 knots 10,000+ meters
Clouds
  • Scattered at 3,000' AGL
Becoming Dec-15 @ 18:00 - Dec-16 @ 07:00
Wind Visibility
Variable at 2 knots 10,000+ meters
Clouds
  • Scattered at 3,000' AGL
Probability 40% Probable Dec-15 @ 20:00 - Dec-16 @ 08:00
Clouds
  • Broken at 500' AGL
Conditions
  • Mist
Probability 30% Probable Dec-15 @ 22:00 - Dec-16 @ 05:00
Conditions
  • Light Snow
  • Light Rain
  • Mist
Becoming Dec-16 @ 07:00 - Dec-16 @ 18:00
Wind Visibility
270° at 10 knots 10,000+ meters
Clouds
  • Broken at 1,400' AGL